sensor_id;sensor_type;location;lat;lon;timestamp;temperature;humidity
70676;DHT22;59069;52.242;20.900;2022-12-11T00:01:45;0.07;86.41
70676;DHT22;59069;52.242;20.900;2022-12-11T00:04:11;0.09;86.43
70676;DHT22;59069;52.242;20.900;2022-12-11T00:06:36;0.09;86.35
70676;DHT22;59069;52.242;20.900;2022-12-11T00:09:02;0.09;86.35
70676;DHT22;59069;52.242;20.900;2022-12-11T00:11:28;0.14;86.39
70676;DHT22;59069;52.242;20.900;2022-12-11T00:13:53;0.14;86.19
70676;DHT22;59069;52.242;20.900;2022-12-11T00:16:19;0.14;86.14
70676;DHT22;59069;52.242;20.900;2022-12-11T00:18:44;0.12;86.21
70676;DHT22;59069;52.242;20.900;2022-12-11T00:21:13;0.12;86.17
70676;DHT22;59069;52.242;20.900;2022-12-11T00:23:39;0.09;86.11
70676;DHT22;59069;52.242;20.900;2022-12-11T00:26:06;0.05;86.15
70676;DHT22;59069;52.242;20.900;2022-12-11T00:28:32;0.07;86.21
70676;DHT22;59069;52.242;20.900;2022-12-11T00:30:58;0.04;86.13
70676;DHT22;59069;52.242;20.900;2022-12-11T00:33:25;0.07;86.18
70676;DHT22;59069;52.242;20.900;2022-12-11T00:35:51;0.05;86.02
70676;DHT22;59069;52.242;20.900;2022-12-11T00:38:19;0.01;86.14
70676;DHT22;59069;52.242;20.900;2022-12-11T00:40:44;0.01;86.28
70676;DHT22;59069;52.242;20.900;2022-12-11T00:43:10;0.01;86.39
70676;DHT22;59069;52.242;20.900;2022-12-11T00:45:45;0.01;86.42
70676;DHT22;59069;52.242;20.900;2022-12-11T00:48:12;-0.01;86.16
70676;DHT22;59069;52.242;20.900;2022-12-11T00:50:38;-0.03;86.08
70676;DHT22;59069;52.242;20.900;2022-12-11T00:53:05;-0.06;86.16
70676;DHT22;59069;52.242;20.900;2022-12-11T00:55:32;-0.06;86.32
70676;DHT22;59069;52.242;20.900;2022-12-11T00:58:00;-0.03;86.32
70676;DHT22;59069;52.242;20.900;2022-12-11T01:00:25;-0.07;86.25
70676;DHT22;59069;52.242;20.900;2022-12-11T01:02:51;-0.06;86.27
70676;DHT22;59069;52.242;20.900;2022-12-11T01:05:16;-0.06;86.18
70676;DHT22;59069;52.242;20.900;2022-12-11T01:07:42;-0.10;86.21
70676;DHT22;59069;52.242;20.900;2022-12-11T01:10:11;-0.09;86.25
70676;DHT22;59069;52.242;20.900;2022-12-11T01:13:04;-0.09;86.37
70676;DHT22;59069;52.242;20.900;2022-12-11T01:15:32;-0.09;86.12
70676;DHT22;59069;52.242;20.900;2022-12-11T01:17:58;-0.12;86.11
70676;DHT22;59069;52.242;20.900;2022-12-11T01:20:25;-0.12;86.15
70676;DHT22;59069;52.242;20.900;2022-12-11T01:22:53;-0.16;86.02
70676;DHT22;59069;52.242;20.900;2022-12-11T01:25:18;-0.16;86.11
70676;DHT22;59069;52.242;20.900;2022-12-11T01:27:44;-0.15;86.22
70676;DHT22;59069;52.242;20.900;2022-12-11T01:30:09;-0.17;85.87
70676;DHT22;59069;52.242;20.900;2022-12-11T01:32:35;-0.17;85.91
70676;DHT22;59069;52.242;20.900;2022-12-11T01:35:05;-0.17;86.02
70676;DHT22;59069;52.242;20.900;2022-12-11T01:37:32;-0.13;85.99
70676;DHT22;59069;52.242;20.900;2022-12-11T01:39:58;-0.13;85.94
70676;DHT22;59069;52.242;20.900;2022-12-11T01:42:23;-0.12;85.91
70676;DHT22;59069;52.242;20.900;2022-12-11T01:47:15;-0.03;85.75
70676;DHT22;59069;52.242;20.900;2022-12-11T01:49:41;-0.05;85.67
70676;DHT22;59069;52.242;20.900;2022-12-11T01:52:11;-0.03;85.48
70676;DHT22;59069;52.242;20.900;2022-12-11T01:54:37;-0.05;85.35
70676;DHT22;59069;52.242;20.900;2022-12-11T01:57:05;-0.05;85.21
70676;DHT22;59069;52.242;20.900;2022-12-11T01:59:32;-0.06;85.09
70676;DHT22;59069;52.242;20.900;2022-12-11T02:02:06;-0.10;85.01
70676;DHT22;59069;52.242;20.900;2022-12-11T02:04:34;-0.12;84.92
70676;DHT22;59069;52.242;20.900;2022-12-11T02:07:01;-0.16;84.80
70676;DHT22;59069;52.242;20.900;2022-12-11T02:09:30;-0.17;84.58
70676;DHT22;59069;52.242;20.900;2022-12-11T02:17:40;-0.20;84.73
70676;DHT22;59069;52.242;20.900;2022-12-11T02:20:31;-0.22;84.50
70676;DHT22;59069;52.242;20.900;2022-12-11T02:28:35;-0.32;84.65
70676;DHT22;59069;52.242;20.900;2022-12-11T02:31:08;-0.29;84.78
70676;DHT22;59069;52.242;20.900;2022-12-11T02:33:53;-0.27;84.80
70676;DHT22;59069;52.242;20.900;2022-12-11T02:36:22;-0.24;84.79
70676;DHT22;59069;52.242;20.900;2022-12-11T02:38:50;-0.22;84.63
70676;DHT22;59069;52.242;20.900;2022-12-11T02:41:19;-0.20;84.53
70676;DHT22;59069;52.242;20.900;2022-12-11T02:43:46;-0.22;84.53
70676;DHT22;59069;52.242;20.900;2022-12-11T02:46:14;-0.20;84.60
70676;DHT22;59069;52.242;20.900;2022-12-11T02:48:43;-0.20;84.68
70676;DHT22;59069;52.242;20.900;2022-12-11T02:51:10;-0.19;84.75
70676;DHT22;59069;52.242;20.900;2022-12-11T02:53:41;-0.17;84.66
70676;DHT22;59069;52.242;20.900;2022-12-11T02:56:18;-0.16;84.66
70676;DHT22;59069;52.242;20.900;2022-12-11T02:58:49;-0.19;84.69
70676;DHT22;59069;52.242;20.900;2022-12-11T03:01:16;-0.23;84.79
70676;DHT22;59069;52.242;20.900;2022-12-11T03:03:42;-0.24;84.70
70676;DHT22;59069;52.242;20.900;2022-12-11T03:06:11;-0.29;84.65
70676;DHT22;59069;52.242;20.900;2022-12-11T03:08:38;-0.30;84.75
70676;DHT22;59069;52.242;20.900;2022-12-11T03:11:03;-0.37;84.84
70676;DHT22;59069;52.242;20.900;2022-12-11T03:13:29;-0.37;84.95
70676;DHT22;59069;52.242;20.900;2022-12-11T03:16:06;-0.43;85.02
70676;DHT22;59069;52.242;20.900;2022-12-11T03:18:41;-0.46;85.10
70676;DHT22;59069;52.242;20.900;2022-12-11T03:21:14;-0.52;85.10
70676;DHT22;59069;52.242;20.900;2022-12-11T03:24:06;-0.54;85.32
70676;DHT22;59069;52.242;20.900;2022-12-11T03:26:41;-0.58;85.45
70676;DHT22;59069;52.242;20.900;2022-12-11T03:29:20;-0.58;85.70
70676;DHT22;59069;52.242;20.900;2022-12-11T03:32:07;-0.57;85.89
70676;DHT22;59069;52.242;20.900;2022-12-11T03:34:54;-0.54;85.93
70676;DHT22;59069;52.242;20.900;2022-12-11T03:37:22;-0.56;85.84
70676;DHT22;59069;52.242;20.900;2022-12-11T03:39:52;-0.52;85.84
70676;DHT22;59069;52.242;20.900;2022-12-11T03:42:21;-0.57;85.95
70676;DHT22;59069;52.242;20.900;2022-12-11T03:44:49;-0.52;86.00
70676;DHT22;59069;52.242;20.900;2022-12-11T03:47:19;-0.53;86.09
70676;DHT22;59069;52.242;20.900;2022-12-11T03:49:47;-0.50;85.95
70676;DHT22;59069;52.242;20.900;2022-12-11T03:52:13;-0.49;86.02
70676;DHT22;59069;52.242;20.900;2022-12-11T03:54:41;-0.53;85.92
70676;DHT22;59069;52.242;20.900;2022-12-11T03:57:12;-0.57;85.83
70676;DHT22;59069;52.242;20.900;2022-12-11T03:59:39;-0.58;85.89
70676;DHT22;59069;52.242;20.900;2022-12-11T04:02:04;-0.63;85.98
70676;DHT22;59069;52.242;20.900;2022-12-11T04:04:39;-0.64;86.03
70676;DHT22;59069;52.242;20.900;2022-12-11T04:07:05;-0.63;86.10
70676;DHT22;59069;52.242;20.900;2022-12-11T04:09:31;-0.65;86.09
70676;DHT22;59069;52.242;20.900;2022-12-11T04:11:57;-0.64;86.26
70676;DHT22;59069;52.242;20.900;2022-12-11T04:14:22;-0.60;86.33
70676;DHT22;59069;52.242;20.900;2022-12-11T04:17:06;-0.57;86.26
70676;DHT22;59069;52.242;20.900;2022-12-11T04:19:31;-0.57;86.25
70676;DHT22;59069;52.242;20.900;2022-12-11T04:22:17;-0.61;86.34
70676;DHT22;59069;52.242;20.900;2022-12-11T04:25:02;-0.63;86.11
70676;DHT22;59069;52.242;20.900;2022-12-11T04:27:28;-0.68;86.16
70676;DHT22;59069;52.242;20.900;2022-12-11T04:30:18;-0.73;86.25
70676;DHT22;59069;52.242;20.900;2022-12-11T04:32:44;-0.75;86.37
70676;DHT22;59069;52.242;20.900;2022-12-11T04:35:10;-0.77;86.41
70676;DHT22;59069;52.242;20.900;2022-12-11T04:37:36;-0.73;86.32
70676;DHT22;59069;52.242;20.900;2022-12-11T04:40:08;-0.71;86.11
70676;DHT22;59069;52.242;20.900;2022-12-11T04:42:34;-0.73;86.12
70676;DHT22;59069;52.242;20.900;2022-12-11T04:44:59;-0.67;86.04
70676;DHT22;59069;52.242;20.900;2022-12-11T04:47:25;-0.71;85.87
70676;DHT22;59069;52.242;20.900;2022-12-11T04:49:50;-0.73;85.61
70676;DHT22;59069;52.242;20.900;2022-12-11T04:52:16;-0.74;85.53
70676;DHT22;59069;52.242;20.900;2022-12-11T04:54:42;-0.77;85.49
70676;DHT22;59069;52.242;20.900;2022-12-11T04:57:07;-0.77;85.62
70676;DHT22;59069;52.242;20.900;2022-12-11T04:59:33;-0.80;85.69
70676;DHT22;59069;52.242;20.900;2022-12-11T05:01:58;-0.80;85.58
70676;DHT22;59069;52.242;20.900;2022-12-11T05:04:24;-0.78;85.77
70676;DHT22;59069;52.242;20.900;2022-12-11T05:06:49;-0.75;85.59
70676;DHT22;59069;52.242;20.900;2022-12-11T05:09:15;-0.71;85.71
70676;DHT22;59069;52.242;20.900;2022-12-11T05:11:41;-0.71;85.80
70676;DHT22;59069;52.242;20.900;2022-12-11T05:14:07;-0.75;85.65
70676;DHT22;59069;52.242;20.900;2022-12-11T05:16:32;-0.74;85.65
70676;DHT22;59069;52.242;20.900;2022-12-11T05:18:58;-0.77;85.74
70676;DHT22;59069;52.242;20.900;2022-12-11T05:21:23;-0.80;85.82
70676;DHT22;59069;52.242;20.900;2022-12-11T05:23:48;-0.80;86.09
70676;DHT22;59069;52.242;20.900;2022-12-11T05:26:16;-0.83;85.91
70676;DHT22;59069;52.242;20.900;2022-12-11T05:28:42;-0.87;85.85
70676;DHT22;59069;52.242;20.900;2022-12-11T05:31:19;-0.89;85.91
70676;DHT22;59069;52.242;20.900;2022-12-11T05:33:45;-0.92;86.11
70676;DHT22;59069;52.242;20.900;2022-12-11T05:36:16;-0.95;86.37
70676;DHT22;59069;52.242;20.900;2022-12-11T05:38:42;-0.95;86.45
70676;DHT22;59069;52.242;20.900;2022-12-11T05:41:09;-0.92;86.39
70676;DHT22;59069;52.242;20.900;2022-12-11T05:43:36;-0.94;86.42
70676;DHT22;59069;52.242;20.900;2022-12-11T05:46:11;-0.91;86.37
70676;DHT22;59069;52.242;20.900;2022-12-11T05:48:37;-0.94;86.55
70676;DHT22;59069;52.242;20.900;2022-12-11T05:51:03;-0.95;86.53
70676;DHT22;59069;52.242;20.900;2022-12-11T05:53:29;-0.98;86.57
70676;DHT22;59069;52.242;20.900;2022-12-11T05:56:04;-0.97;86.74
70676;DHT22;59069;52.242;20.900;2022-12-11T05:58:30;-1.02;86.61
70676;DHT22;59069;52.242;20.900;2022-12-11T06:00:56;-1.06;86.58
70676;DHT22;59069;52.242;20.900;2022-12-11T06:03:21;-1.06;86.63
70676;DHT22;59069;52.242;20.900;2022-12-11T06:05:47;-1.12;86.71
70676;DHT22;59069;52.242;20.900;2022-12-11T06:08:13;-1.15;86.77
70676;DHT22;59069;52.242;20.900;2022-12-11T06:10:47;-1.16;86.90
70676;DHT22;59069;52.242;20.900;2022-12-11T06:13:14;-1.16;87.08
70676;DHT22;59069;52.242;20.900;2022-12-11T06:15:39;-1.18;87.07
70676;DHT22;59069;52.242;20.900;2022-12-11T06:18:05;-1.24;87.15
70676;DHT22;59069;52.242;20.900;2022-12-11T06:20:31;-1.24;87.06
70676;DHT22;59069;52.242;20.900;2022-12-11T06:22:58;-1.28;87.08
70676;DHT22;59069;52.242;20.900;2022-12-11T06:25:23;-1.31;86.97
70676;DHT22;59069;52.242;20.900;2022-12-11T06:27:50;-1.32;86.93
70676;DHT22;59069;52.242;20.900;2022-12-11T06:30:16;-1.35;87.00
70676;DHT22;59069;52.242;20.900;2022-12-11T06:32:42;-1.38;87.03
70676;DHT22;59069;52.242;20.900;2022-12-11T06:35:08;-1.38;87.05
70676;DHT22;59069;52.242;20.900;2022-12-11T06:37:34;-1.43;86.98
70676;DHT22;59069;52.242;20.900;2022-12-11T06:40:00;-1.49;87.02
70676;DHT22;59069;52.242;20.900;2022-12-11T06:42:28;-1.50;87.19
70676;DHT22;59069;52.242;20.900;2022-12-11T06:44:54;-1.52;87.34
70676;DHT22;59069;52.242;20.900;2022-12-11T06:47:21;-1.55;87.54
70676;DHT22;59069;52.242;20.900;2022-12-11T06:49:47;-1.52;87.59
70676;DHT22;59069;52.242;20.900;2022-12-11T06:52:12;-1.56;87.38
70676;DHT22;59069;52.242;20.900;2022-12-11T06:54:38;-1.59;87.40
70676;DHT22;59069;52.242;20.900;2022-12-11T06:57:03;-1.57;87.32
70676;DHT22;59069;52.242;20.900;2022-12-11T06:59:29;-1.59;87.34
70676;DHT22;59069;52.242;20.900;2022-12-11T07:01:55;-1.59;87.43
70676;DHT22;59069;52.242;20.900;2022-12-11T07:04:20;-1.62;87.40
70676;DHT22;59069;52.242;20.900;2022-12-11T07:06:49;-1.62;87.44
70676;DHT22;59069;52.242;20.900;2022-12-11T07:09:14;-1.59;87.45
70676;DHT22;59069;52.242;20.900;2022-12-11T07:11:40;-1.62;87.33
70676;DHT22;59069;52.242;20.900;2022-12-11T07:14:05;-1.57;87.43
70676;DHT22;59069;52.242;20.900;2022-12-11T07:16:31;-1.59;87.32
70676;DHT22;59069;52.242;20.900;2022-12-11T07:18:56;-1.57;87.38
70676;DHT22;59069;52.242;20.900;2022-12-11T07:21:22;-1.55;87.55
70676;DHT22;59069;52.242;20.900;2022-12-11T07:23:48;-1.47;87.55
70676;DHT22;59069;52.242;20.900;2022-12-11T07:26:15;-1.45;87.39
70676;DHT22;59069;52.242;20.900;2022-12-11T07:28:42;-1.40;87.16
70676;DHT22;59069;52.242;20.900;2022-12-11T07:31:13;-1.43;86.84
70676;DHT22;59069;52.242;20.900;2022-12-11T07:33:39;-1.45;86.80
70676;DHT22;59069;52.242;20.900;2022-12-11T07:36:07;-1.47;86.61
70676;DHT22;59069;52.242;20.900;2022-12-11T07:38:33;-1.52;86.65
70676;DHT22;59069;52.242;20.900;2022-12-11T07:41:00;-1.49;86.75
70676;DHT22;59069;52.242;20.900;2022-12-11T07:43:26;-1.52;86.74
70676;DHT22;59069;52.242;20.900;2022-12-11T07:45:52;-1.50;86.71
70676;DHT22;59069;52.242;20.900;2022-12-11T07:48:17;-1.57;86.33
70676;DHT22;59069;52.242;20.900;2022-12-11T07:50:42;-1.63;86.35
70676;DHT22;59069;52.242;20.900;2022-12-11T07:53:08;-1.69;86.56
70676;DHT22;59069;52.242;20.900;2022-12-11T07:55:33;-1.69;86.48
70676;DHT22;59069;52.242;20.900;2022-12-11T07:57:59;-1.69;86.54
70676;DHT22;59069;52.242;20.900;2022-12-11T08:00:24;-1.64;86.65
70676;DHT22;59069;52.242;20.900;2022-12-11T08:02:50;-1.64;86.54
70676;DHT22;59069;52.242;20.900;2022-12-11T08:05:15;-1.64;86.54
70676;DHT22;59069;52.242;20.900;2022-12-11T08:07:40;-1.66;86.37
70676;DHT22;59069;52.242;20.900;2022-12-11T08:10:06;-1.69;85.95
70676;DHT22;59069;52.242;20.900;2022-12-11T08:12:32;-1.74;85.97
70676;DHT22;59069;52.242;20.900;2022-12-11T08:14:57;-1.74;85.89
70676;DHT22;59069;52.242;20.900;2022-12-11T08:17:23;-1.77;85.92
70676;DHT22;59069;52.242;20.900;2022-12-11T08:19:48;-1.76;86.00
70676;DHT22;59069;52.242;20.900;2022-12-11T08:22:14;-1.77;86.05
70676;DHT22;59069;52.242;20.900;2022-12-11T08:24:39;-1.74;86.00
70676;DHT22;59069;52.242;20.900;2022-12-11T08:27:05;-1.76;85.77
70676;DHT22;59069;52.242;20.900;2022-12-11T08:29:31;-1.77;85.81
70676;DHT22;59069;52.242;20.900;2022-12-11T08:31:56;-1.76;85.91
70676;DHT22;59069;52.242;20.900;2022-12-11T08:34:22;-1.77;85.82
70676;DHT22;59069;52.242;20.900;2022-12-11T08:36:47;-1.78;85.57
70676;DHT22;59069;52.242;20.900;2022-12-11T08:39:12;-1.80;85.59
70676;DHT22;59069;52.242;20.900;2022-12-11T08:41:39;-1.84;85.52
70676;DHT22;59069;52.242;20.900;2022-12-11T08:44:10;-1.86;85.65
70676;DHT22;59069;52.242;20.900;2022-12-11T08:46:36;-1.80;85.75
70676;DHT22;59069;52.242;20.900;2022-12-11T08:49:01;-1.80;85.65
70676;DHT22;59069;52.242;20.900;2022-12-11T08:51:28;-1.78;85.72
70676;DHT22;59069;52.242;20.900;2022-12-11T08:53:58;-1.76;85.73
70676;DHT22;59069;52.242;20.900;2022-12-11T08:56:25;-1.74;85.64
70676;DHT22;59069;52.242;20.900;2022-12-11T08:58:51;-1.67;85.91
70676;DHT22;59069;52.242;20.900;2022-12-11T09:01:22;-1.63;86.05
70676;DHT22;59069;52.242;20.900;2022-12-11T09:03:49;-1.60;85.89
70676;DHT22;59069;52.242;20.900;2022-12-11T09:06:18;-1.57;85.74
70676;DHT22;59069;52.242;20.900;2022-12-11T09:08:46;-1.57;85.33
70676;DHT22;59069;52.242;20.900;2022-12-11T09:11:14;-1.64;85.14
70676;DHT22;59069;52.242;20.900;2022-12-11T09:13:40;-1.64;85.23
70676;DHT22;59069;52.242;20.900;2022-12-11T09:16:08;-1.66;85.33
70676;DHT22;59069;52.242;20.900;2022-12-11T09:18:35;-1.64;85.33
70676;DHT22;59069;52.242;20.900;2022-12-11T09:21:06;-1.66;85.25
70676;DHT22;59069;52.242;20.900;2022-12-11T09:23:32;-1.64;85.17
70676;DHT22;59069;52.242;20.900;2022-12-11T09:25:57;-1.62;85.36
70676;DHT22;59069;52.242;20.900;2022-12-11T09:28:23;-1.59;85.28
70676;DHT22;59069;52.242;20.900;2022-12-11T09:30:50;-1.60;84.79
70676;DHT22;59069;52.242;20.900;2022-12-11T09:33:15;-1.66;84.63
70676;DHT22;59069;52.242;20.900;2022-12-11T09:35:41;-1.73;84.70
70676;DHT22;59069;52.242;20.900;2022-12-11T09:38:07;-1.77;84.98
70676;DHT22;59069;52.242;20.900;2022-12-11T09:40:32;-1.73;85.26
70676;DHT22;59069;52.242;20.900;2022-12-11T09:43:02;-1.73;84.92
70676;DHT22;59069;52.242;20.900;2022-12-11T09:45:30;-1.74;84.76
70676;DHT22;59069;52.242;20.900;2022-12-11T09:47:56;-1.81;84.87
70676;DHT22;59069;52.242;20.900;2022-12-11T09:50:30;-1.80;85.06
70676;DHT22;59069;52.242;20.900;2022-12-11T09:53:06;-1.81;84.99
70676;DHT22;59069;52.242;20.900;2022-12-11T09:55:54;-1.81;85.09
70676;DHT22;59069;52.242;20.900;2022-12-11T09:58:26;-1.76;85.19
70676;DHT22;59069;52.242;20.900;2022-12-11T10:01:08;-1.77;85.01
70676;DHT22;59069;52.242;20.900;2022-12-11T10:04:18;-1.78;85.09
70676;DHT22;59069;52.242;20.900;2022-12-11T10:10:02;-1.73;85.33
70676;DHT22;59069;52.242;20.900;2022-12-11T10:12:38;-1.67;85.43
70676;DHT22;59069;52.242;20.900;2022-12-11T10:15:39;-1.67;85.00
70676;DHT22;59069;52.242;20.900;2022-12-11T10:18:11;-1.66;85.02
70676;DHT22;59069;52.242;20.900;2022-12-11T10:20:38;-1.60;85.11
70676;DHT22;59069;52.242;20.900;2022-12-11T10:23:07;-1.63;85.03
70676;DHT22;59069;52.242;20.900;2022-12-11T10:25:41;-1.66;85.08
70676;DHT22;59069;52.242;20.900;2022-12-11T10:28:19;-1.66;85.29
70676;DHT22;59069;52.242;20.900;2022-12-11T10:33:59;-1.56;85.15
70676;DHT22;59069;52.242;20.900;2022-12-11T10:36:30;-1.55;85.11
70676;DHT22;59069;52.242;20.900;2022-12-11T10:38:57;-1.53;85.20
70676;DHT22;59069;52.242;20.900;2022-12-11T10:41:38;-1.52;85.11
70676;DHT22;59069;52.242;20.900;2022-12-11T10:44:33;-1.45;85.25
70676;DHT22;59069;52.242;20.900;2022-12-11T10:47:13;-1.39;84.82
70676;DHT22;59069;52.242;20.900;2022-12-11T10:49:50;-1.43;84.41
70676;DHT22;59069;52.242;20.900;2022-12-11T10:52:36;-1.46;84.45
70676;DHT22;59069;52.242;20.900;2022-12-11T10:57:31;-1.46;84.29
70676;DHT22;59069;52.242;20.900;2022-12-11T10:59:58;-1.47;84.24
70676;DHT22;59069;52.242;20.900;2022-12-11T11:02:32;-1.49;83.97
70676;DHT22;59069;52.242;20.900;2022-12-11T11:05:00;-1.52;83.97
70676;DHT22;59069;52.242;20.900;2022-12-11T11:07:34;-1.55;83.87
70676;DHT22;59069;52.242;20.900;2022-12-11T11:10:15;-1.57;84.17
70676;DHT22;59069;52.242;20.900;2022-12-11T11:12:44;-1.60;84.03
70676;DHT22;59069;52.242;20.900;2022-12-11T11:15:23;-1.60;84.14
70676;DHT22;59069;52.242;20.900;2022-12-11T11:17:54;-1.59;84.37
70676;DHT22;59069;52.242;20.900;2022-12-11T11:20:23;-1.53;84.66
70676;DHT22;59069;52.242;20.900;2022-12-11T11:22:52;-1.50;84.64
70676;DHT22;59069;52.242;20.900;2022-12-11T11:25:25;-1.43;84.52
70676;DHT22;59069;52.242;20.900;2022-12-11T11:27:56;-1.43;84.35
70676;DHT22;59069;52.242;20.900;2022-12-11T11:30:34;-1.39;84.37
70676;DHT22;59069;52.242;20.900;2022-12-11T11:33:04;-1.36;84.38
70676;DHT22;59069;52.242;20.900;2022-12-11T11:35:31;-1.32;84.49
70676;DHT22;59069;52.242;20.900;2022-12-11T11:40:43;-1.26;84.07
70676;DHT22;59069;52.242;20.900;2022-12-11T11:43:16;-1.24;84.18
70676;DHT22;59069;52.242;20.900;2022-12-11T11:50:44;-1.22;84.09
70676;DHT22;59069;52.242;20.900;2022-12-11T11:53:32;-1.20;84.03
70676;DHT22;59069;52.242;20.900;2022-12-11T11:58:44;-1.15;83.75
70676;DHT22;59069;52.242;20.900;2022-12-11T12:01:15;-1.15;83.50
70676;DHT22;59069;52.242;20.900;2022-12-11T12:03:42;-1.12;83.55
70676;DHT22;59069;52.242;20.900;2022-12-11T12:09:01;-1.18;83.13
70676;DHT22;59069;52.242;20.900;2022-12-11T12:11:39;-1.22;82.93
70676;DHT22;59069;52.242;20.900;2022-12-11T12:14:29;-1.25;83.15
70676;DHT22;59069;52.242;20.900;2022-12-11T12:19:45;-1.29;83.33
70676;DHT22;59069;52.242;20.900;2022-12-11T12:25:27;-1.28;83.05
70676;DHT22;59069;52.242;20.900;2022-12-11T12:34:01;-1.45;83.28
70676;DHT22;59069;52.242;20.900;2022-12-11T12:36:17;-1.45;83.34
70676;DHT22;59069;52.242;20.900;2022-12-11T12:39:02;-1.47;83.31
70676;DHT22;59069;52.242;20.900;2022-12-11T12:44:11;-1.59;83.25
70676;DHT22;59069;52.242;20.900;2022-12-11T12:47:08;-1.62;83.53
70676;DHT22;59069;52.242;20.900;2022-12-11T12:49:47;-1.64;83.67
70676;DHT22;59069;52.242;20.900;2022-12-11T12:54:56;-1.63;83.63
70676;DHT22;59069;52.242;20.900;2022-12-11T12:57:38;-1.66;83.52
70676;DHT22;59069;52.242;20.900;2022-12-11T13:00:06;-1.71;83.50
70676;DHT22;59069;52.242;20.900;2022-12-11T13:02:33;-1.76;83.56
70676;DHT22;59069;52.242;20.900;2022-12-11T13:05:28;-1.74;83.77
70676;DHT22;59069;52.242;20.900;2022-12-11T13:07:57;-1.71;83.75
70676;DHT22;59069;52.242;20.900;2022-12-11T13:10:32;-1.70;83.61
70676;DHT22;59069;52.242;20.900;2022-12-11T13:12:59;-1.69;83.70
70676;DHT22;59069;52.242;20.900;2022-12-11T13:15:35;-1.73;83.55
70676;DHT22;59069;52.242;20.900;2022-12-11T13:18:29;-1.74;83.63
70676;DHT22;59069;52.242;20.900;2022-12-11T13:20:51;-1.76;83.52
70676;DHT22;59069;52.242;20.900;2022-12-11T13:23:25;-1.81;83.39
70676;DHT22;59069;52.242;20.900;2022-12-11T13:26:02;-1.86;83.76
70676;DHT22;59069;52.242;20.900;2022-12-11T13:28:32;-1.87;83.93
70676;DHT22;59069;52.242;20.900;2022-12-11T13:33:45;-1.88;84.19
70676;DHT22;59069;52.242;20.900;2022-12-11T13:38:42;-1.83;84.09
70676;DHT22;59069;52.242;20.900;2022-12-11T13:41:10;-1.81;84.03
70676;DHT22;59069;52.242;20.900;2022-12-11T13:43:37;-1.86;83.91
70676;DHT22;59069;52.242;20.900;2022-12-11T13:46:08;-1.86;83.96
70676;DHT22;59069;52.242;20.900;2022-12-11T13:48:55;-1.90;83.82
70676;DHT22;59069;52.242;20.900;2022-12-11T13:51:26;-1.95;83.91
70676;DHT22;59069;52.242;20.900;2022-12-11T13:54:15;-1.97;83.97
70676;DHT22;59069;52.242;20.900;2022-12-11T13:56:59;-2.02;83.82
70676;DHT22;59069;52.242;20.900;2022-12-11T13:59:30;-2.00;84.14
70676;DHT22;59069;52.242;20.900;2022-12-11T14:02:00;-2.01;84.10
70676;DHT22;59069;52.242;20.900;2022-12-11T14:04:27;-2.04;84.02
70676;DHT22;59069;52.242;20.900;2022-12-11T14:06:55;-2.10;83.91
70676;DHT22;59069;52.242;20.900;2022-12-11T14:09:22;-2.15;83.80
70676;DHT22;59069;52.242;20.900;2022-12-11T14:11:49;-2.21;83.88
70676;DHT22;59069;52.242;20.900;2022-12-11T14:14:35;-2.19;84.22
70676;DHT22;59069;52.242;20.900;2022-12-11T14:17:03;-2.19;84.19
70676;DHT22;59069;52.242;20.900;2022-12-11T14:19:29;-2.22;84.15
70676;DHT22;59069;52.242;20.900;2022-12-11T14:22:03;-2.24;84.52
70676;DHT22;59069;52.242;20.900;2022-12-11T14:24:30;-2.25;84.64
70676;DHT22;59069;52.242;20.900;2022-12-11T14:26:55;-2.25;84.71
70676;DHT22;59069;52.242;20.900;2022-12-11T14:29:29;-2.22;84.83
70676;DHT22;59069;52.242;20.900;2022-12-11T14:31:58;-2.17;84.85
70676;DHT22;59069;52.242;20.900;2022-12-11T14:34:31;-2.10;84.82
70676;DHT22;59069;52.242;20.900;2022-12-11T14:36:58;-2.11;84.48
70676;DHT22;59069;52.242;20.900;2022-12-11T14:42:10;-2.14;84.48
70676;DHT22;59069;52.242;20.900;2022-12-11T14:44:49;-2.15;84.50
70676;DHT22;59069;52.242;20.900;2022-12-11T14:47:19;-2.19;84.68
70676;DHT22;59069;52.242;20.900;2022-12-11T14:49:52;-2.22;84.58
70676;DHT22;59069;52.242;20.900;2022-12-11T14:52:26;-2.22;84.56
70676;DHT22;59069;52.242;20.900;2022-12-11T14:54:58;-2.21;84.64
70676;DHT22;59069;52.242;20.900;2022-12-11T14:57:28;-2.22;84.54
70676;DHT22;59069;52.242;20.900;2022-12-11T14:59:55;-2.28;84.43
70676;DHT22;59069;52.242;20.900;2022-12-11T15:02:30;-2.29;84.53
70676;DHT22;59069;52.242;20.900;2022-12-11T15:05:15;-2.32;84.49
70676;DHT22;59069;52.242;20.900;2022-12-11T15:07:55;-2.37;84.58
70676;DHT22;59069;52.242;20.900;2022-12-11T15:10:26;-2.37;84.72
70676;DHT22;59069;52.242;20.900;2022-12-11T15:12:53;-2.34;84.76
70676;DHT22;59069;52.242;20.900;2022-12-11T15:15:19;-2.32;84.66
70676;DHT22;59069;52.242;20.900;2022-12-11T15:17:45;-2.34;84.50
70676;DHT22;59069;52.242;20.900;2022-12-11T15:20:24;-2.38;84.70
70676;DHT22;59069;52.242;20.900;2022-12-11T15:22:50;-2.38;84.75
70676;DHT22;59069;52.242;20.900;2022-12-11T15:25:25;-2.38;84.81
70676;DHT22;59069;52.242;20.900;2022-12-11T15:27:54;-2.35;84.82
70676;DHT22;59069;52.242;20.900;2022-12-11T15:33:20;-2.37;84.91
70676;DHT22;59069;52.242;20.900;2022-12-11T15:38:38;-2.35;85.00
70676;DHT22;59069;52.242;20.900;2022-12-11T15:41:17;-2.38;84.83
70676;DHT22;59069;52.242;20.900;2022-12-11T15:43:46;-2.37;84.77
70676;DHT22;59069;52.242;20.900;2022-12-11T15:46:12;-2.44;84.79
70676;DHT22;59069;52.242;20.900;2022-12-11T15:48:37;-2.41;84.99
70676;DHT22;59069;52.242;20.900;2022-12-11T15:51:03;-2.39;85.06
70676;DHT22;59069;52.242;20.900;2022-12-11T15:53:28;-2.38;85.14
70676;DHT22;59069;52.242;20.900;2022-12-11T15:55:54;-2.38;85.00
70676;DHT22;59069;52.242;20.900;2022-12-11T15:58:22;-2.39;84.98
70676;DHT22;59069;52.242;20.900;2022-12-11T16:00:48;-2.38;85.09
70676;DHT22;59069;52.242;20.900;2022-12-11T16:03:16;-2.35;85.13
70676;DHT22;59069;52.242;20.900;2022-12-11T16:05:42;-2.37;85.06
70676;DHT22;59069;52.242;20.900;2022-12-11T16:08:12;-2.38;84.87
70676;DHT22;59069;52.242;20.900;2022-12-11T16:10:40;-2.44;84.70
70676;DHT22;59069;52.242;20.900;2022-12-11T16:13:06;-2.46;84.75
70676;DHT22;59069;52.242;20.900;2022-12-11T16:15:31;-2.51;84.74
70676;DHT22;59069;52.242;20.900;2022-12-11T16:18:04;-2.53;84.84
70676;DHT22;59069;52.242;20.900;2022-12-11T16:20:32;-2.55;84.96
70676;DHT22;59069;52.242;20.900;2022-12-11T16:22:58;-2.56;85.02
70676;DHT22;59069;52.242;20.900;2022-12-11T16:25:24;-2.55;84.96
70676;DHT22;59069;52.242;20.900;2022-12-11T16:27:50;-2.52;85.05
70676;DHT22;59069;52.242;20.900;2022-12-11T16:30:16;-2.48;85.13
70676;DHT22;59069;52.242;20.900;2022-12-11T16:32:42;-2.45;85.02
70676;DHT22;59069;52.242;20.900;2022-12-11T16:35:08;-2.46;84.77
70676;DHT22;59069;52.242;20.900;2022-12-11T16:37:33;-2.52;84.73
70676;DHT22;59069;52.242;20.900;2022-12-11T16:39:58;-2.52;84.88